Main page
METAR-TAF:

METAR-TAF

Airports :

Livingston County Spencer J. Hardy Airport

Howell, Michigan, United States

latitude: 42-37-46N, longitude: 083-59-03W, elevation: 961 ft

Current weather observation

The report was made 30 minutes ago, at 19:35 UTC
Wind 14 mph from the South with gusts up to 18 mph
Temperature 46°F
Humidity 31%
Pressure 30.18 in. Hg
Visibility: 10 miles
Clear sky

METAR: KOZW 011935Z AUTO 17012G16KT 10SM CLR 08/M08 A3018 RMK AO2 T00821085

Time: 15:05 (20:05 UTC)


TAF: missing

Weather observations and forecasts of more than 4000 airports (METAR and TAF reports).

The available stations are represented by yellow and red dots on the map.

Hover mouse over dot to see the name of the station.

Then click to see weather observations and forecasts.

To change the map : click on the green buttons with a black cross to zoom in, on the green button with a dash to zoom out, or on the green arrows for adjacent maps.


METAR-TAF: